Carcroft, United Kingdom
Current Conditions -  °F | °C
As of 1:20 PM on Saturday 22 Nov 2014 (Local Time) from EGCN Reporting Station
Scattered Clouds Scattered Clouds  
Wind Chill: 57°   Ceiling: Unl
Heat Index: 57°   Visibility: 6mi
Dew Point: 55°   Wind: 6mph
Humidity: 94%   Direction: 190°S
Pressure: 29.88"   Gusts: NA
Location:  53.58°N, 1.18°W
Report Text: EGCN 221320Z 19005KT 9999 SCT009 SCT012 14/13 Q1012
Loading
Personal Weather Stations






























Interactive Weather Map New forecast layout! Learn more

10-Day Weather Forecast

Advertisements
Track Severe Weather on mobile